Time;durP1;ratioP1;P1;durP2;ratioP2;P2;SDS_P1;SDS_P2;PMS_P1;PMS_P2;Temp;Humidity;BMP_temperature;BMP_pressure;BME280_temperature;BME280_humidity;BME280_pressure;Samples;Min_cycle;Max_cycle;Signal;HPM_P1;HPM_P2
2021/06/16 00:01:00;;;;;;;12.93;9.63;;;;;;;18.26;67.07;100030.30;254514;1104;115655;-77
2021/06/16 00:06:04;;;;;;;12.25;8.88;;;;;;;18.27;67.20;100029.21;254411;1097;115044;-76
2021/06/16 00:11:08;;;;;;;8.40;7.60;;;;;;;18.05;66.89;100023.37;254255;1104;115535;-76
2021/06/16 00:16:12;;;;;;;8.63;7.73;;;;;;;17.86;66.95;100023.19;254461;1104;115427;-76
2021/06/16 00:21:15;;;;;;;10.80;9.00;;;;;;;17.84;67.36;100019.95;254847;1103;115850;-74
2021/06/16 00:26:18;;;;;;;13.03;10.15;;;;;;;17.79;67.23;100020.78;255262;1103;115304;-78
2021/06/16 00:31:21;;;;;;;14.30;10.28;;;;;;;17.77;67.55;100024.83;254486;1102;115374;-78
2021/06/16 00:36:30;;;;;;;11.33;9.53;;;;;;;17.74;67.76;100031.58;257240;1101;115302;-77
2021/06/16 00:41:34;;;;;;;11.97;10.73;;;;;;;17.72;67.93;100036.46;257334;1101;115431;-79
2021/06/16 00:46:38;;;;;;;11.20;10.10;;;;;;;17.69;67.85;100046.98;255431;1101;116104;-77
2021/06/16 00:51:41;;;;;;;9.45;8.58;;;;;;;17.59;67.64;100047.78;254299;1103;115773;-75
2021/06/16 00:56:46;;;;;;;13.88;11.63;;;;;;;17.46;67.92;100049.14;255119;1103;115269;-76
2021/06/16 01:01:49;;;;;;;14.75;10.50;;;;;;;17.45;67.98;100039.44;254347;1103;115684;-77
2021/06/16 01:07:02;;;;;;;12.38;9.80;;;;;;;17.34;68.30;100042.44;255345;1102;115770;-78
2021/06/16 01:12:17;;;;;;;14.87;10.40;;;;;;;17.30;68.28;100044.86;254608;1103;115421;-76
2021/06/16 01:17:32;;;;;;;12.93;11.73;;;;;;;17.29;68.89;100047.83;254263;1104;115814;-77
2021/06/16 01:22:42;;;;;;;15.75;13.43;;;;;;;17.29;69.25;100050.52;254527;1094;115736;-75
2021/06/16 01:27:45;;;;;;;15.03;13.53;;;;;;;17.25;69.88;100049.44;254172;1104;116661;-75
2021/06/16 01:32:51;;;;;;;19.55;13.38;;;;;;;17.26;69.30;100045.67;254512;1103;116398;-76
2021/06/16 01:37:53;;;;;;;17.80;11.40;;;;;;;17.20;69.14;100049.44;254603;1104;116517;-77
2021/06/16 01:42:58;;;;;;;16.45;14.75;;;;;;;17.11;69.90;100055.40;254414;1103;116622;-78
2021/06/16 01:48:04;;;;;;;15.73;14.08;;;;;;;17.12;70.06;100054.29;254471;1104;116223;-75
2021/06/16 01:53:09;;;;;;;19.33;13.80;;;;;;;17.10;70.29;100061.86;254397;1104;115960;-78
2021/06/16 01:58:16;;;;;;;16.68;13.25;;;;;;;17.03;70.50;100061.31;254393;1100;116485;-76
2021/06/16 02:03:20;;;;;;;16.40;14.05;;;;;;;17.00;70.62;100061.84;254194;1104;117638;-77
2021/06/16 02:08:27;;;;;;;22.60;15.50;;;;;;;17.03;70.83;100064.01;254368;1104;117134;-78
2021/06/16 02:13:45;;;;;;;16.78;14.75;;;;;;;16.98;71.15;100066.69;255209;1104;117386;-75
2021/06/16 02:19:14;;;;;;;18.43;13.75;;;;;;;16.96;71.26;100068.84;254169;1104;116515;-78
2021/06/16 02:24:19;;;;;;;14.53;12.40;;;;;;;16.94;71.32;100062.91;254376;1103;117041;-78
2021/06/16 02:29:29;;;;;;;21.30;12.23;;;;;;;16.89;71.02;100072.88;254138;1104;116481;-76
2021/06/16 02:34:33;;;;;;;14.38;12.93;;;;;;;16.75;71.40;100068.02;254702;1104;116621;-75
2021/06/16 02:39:44;;;;;;;15.18;13.30;;;;;;;16.68;71.59;100077.42;255454;1103;117205;-71
2021/06/16 02:44:50;;;;;;;21.20;12.50;;;;;;;16.64;71.65;100085.22;255081;1103;117778;-74
2021/06/16 02:49:58;;;;;;;22.85;13.18;;;;;;;16.62;72.03;100083.84;256176;1103;115526;-76
2021/06/16 02:55:05;;;;;;;15.95;10.88;;;;;;;16.62;71.49;100090.03;254407;1104;115549;-74
2021/06/16 03:00:12;;;;;;;11.80;10.65;;;;;;;16.60;71.48;100102.94;254966;1100;115707;-75
2021/06/16 03:05:23;;;;;;;10.63;9.50;;;;;;;16.60;71.28;100094.87;254290;1103;115223;-77
2021/06/16 03:10:30;;;;;;;16.18;8.98;;;;;;;16.53;71.15;100115.83;255029;1104;116903;-73
2021/06/16 03:15:35;;;;;;;15.93;9.75;;;;;;;16.51;70.97;100123.36;254973;1096;115009;-77
2021/06/16 03:20:40;;;;;;;8.80;7.70;;;;;;;16.47;71.20;100136.56;254829;1104;115989;-74
2021/06/16 03:25:44;;;;;;;9.00;7.78;;;;;;;16.44;70.72;100131.70;254268;1102;115791;-76
2021/06/16 03:30:49;;;;;;;10.37;7.40;;;;;;;16.44;70.33;100130.89;254796;1103;115317;-76
2021/06/16 03:35:57;;;;;;;12.17;6.20;;;;;;;16.41;70.36;100121.46;254385;1099;115983;-75
2021/06/16 03:41:01;;;;;;;;;;;;;;;16.43;69.90;100124.70;254597;1104;116317;-75
2021/06/16 03:46:07;;;;;;;12.55;5.18;;;;;;;16.45;69.67;100130.63;255128;1104;103048;-74
2021/06/16 03:51:13;;;;;;;12.28;5.20;;;;;;;16.60;68.96;100140.63;254389;1102;116547;-74
2021/06/16 03:56:17;;;;;;;6.60;4.33;;;;;;;16.72;68.65;100141.23;254409;1103;116827;-74
2021/06/16 04:01:21;;;;;;;5.78;5.18;;;;;;;16.74;68.30;100138.28;254365;1103;116271;-72
2021/06/16 04:06:26;;;;;;;9.13;4.63;;;;;;;16.79;67.93;100138.30;254441;1103;116093;-73
2021/06/16 04:11:31;;;;;;;9.43;3.53;;;;;;;16.95;67.04;100129.16;256430;1104;116781;-72
2021/06/16 04:16:34;;;;;;;5.10;4.33;;;;;;;17.13;67.18;100143.98;255160;1104;116971;-72
2021/06/16 04:21:40;;;;;;;5.55;4.10;;;;;;;17.30;66.19;100139.17;254437;1103;117266;-71
2021/06/16 04:26:43;;;;;;;3.63;2.45;;;;;;;17.66;65.41;100147.28;256074;1104;117213;-73
2021/06/16 04:31:48;;;;;;;4.50;3.05;;;;;;;18.83;63.93;100150.42;254396;1103;116653;-73
2021/06/16 04:36:51;;;;;;;4.43;2.55;;;;;;;19.86;61.60;100168.31;256048;1103;116574;-73
2021/06/16 04:41:55;;;;;;;3.20;2.70;;;;;;;21.54;59.06;100158.81;255918;1104;139043;-73
2021/06/16 04:46:58;;;;;;;2.97;2.47;;;;;;;22.15;57.76;100147.69;257451;1103;115229;-74
2021/06/16 04:52:02;;;;;;;2.53;2.33;;;;;;;21.30;56.53;100152.71;256687;1104;116045;-73
2021/06/16 04:57:07;;;;;;;2.43;2.23;;;;;;;20.75;56.18;100153.22;254963;1104;115787;-73
2021/06/16 05:02:11;;;;;;;3.85;2.78;;;;;;;20.62;56.14;100159.34;254824;1104;115900;-73
2021/06/16 05:07:15;;;;;;;5.18;2.38;;;;;;;21.73;54.42;100156.03;254450;1104;116626;-74
2021/06/16 05:12:19;;;;;;;4.83;2.20;;;;;;;23.30;53.04;100160.16;254265;1104;116233;-72
2021/06/16 05:17:22;;;;;;;2.70;1.90;;;;;;;25.17;50.33;100167.83;254455;1104;116911;-71
2021/06/16 05:22:28;;;;;;;3.25;2.13;;;;;;;26.30;48.15;100176.56;254411;1104;122086;-72
2021/06/16 05:27:34;;;;;;;2.90;2.10;;;;;;;27.66;45.92;100178.70;254905;1104;116147;-72
2021/06/16 05:32:37;;;;;;;2.40;1.98;;;;;;;29.02;43.92;100184.72;254348;1104;116510;-71
2021/06/16 05:37:45;;;;;;;4.78;2.90;;;;;;;30.34;41.11;100167.06;254365;1103;115151;-72
2021/06/16 05:42:49;;;;;;;2.68;2.45;;;;;;;31.65;39.31;100185.64;255192;1104;116291;-74
2021/06/16 05:47:52;;;;;;;6.13;2.43;;;;;;;32.68;37.60;100187.41;254873;1104;118882;-72
2021/06/16 05:52:56;;;;;;;3.90;2.00;;;;;;;34.08;36.41;100183.14;254295;1099;115852;-75
2021/06/16 05:57:59;;;;;;;4.93;2.05;;;;;;;35.30;33.71;100181.97;254281;1104;115429;-76
2021/06/16 06:03:02;;;;;;;2.10;2.00;;;;;;;36.19;32.02;100179.34;254344;1104;115818;-73
2021/06/16 06:08:07;;;;;;;3.23;1.98;;;;;;;36.98;30.89;100186.39;254244;1102;115683;-72
2021/06/16 06:13:11;;;;;;;4.23;1.93;;;;;;;37.23;29.71;100197.42;256056;1096;114757;-73
2021/06/16 06:18:15;;;;;;;11.38;2.05;;;;;;;37.61;28.49;100207.52;254329;1096;114979;-73
2021/06/16 06:23:19;;;;;;;1.87;1.77;;;;;;;37.80;27.83;100206.26;254408;1104;115568;-73
2021/06/16 06:28:24;;;;;;;2.30;1.73;;;;;;;37.91;27.35;100206.19;255172;1103;115910;-74
2021/06/16 06:33:27;;;;;;;2.00;1.90;;;;;;;37.84;27.16;100211.80;254390;1097;115186;-75
2021/06/16 06:38:30;;;;;;;2.15;1.48;;;;;;;37.68;26.57;100213.08;254431;1103;115668;-72
2021/06/16 06:43:33;;;;;;;4.30;2.13;;;;;;;37.84;26.63;100211.80;254437;1104;114746;-74
2021/06/16 06:48:38;;;;;;;2.55;2.03;;;;;;;37.62;25.92;100209.11;254352;1104;115606;-75
2021/06/16 06:53:42;;;;;;;2.73;1.80;;;;;;;37.82;25.90;100211.41;255678;1103;115147;-75
2021/06/16 06:58:46;;;;;;;3.95;2.00;;;;;;;37.96;25.51;100212.09;256707;1104;114772;-72
2021/06/16 07:03:49;;;;;;;4.65;2.43;;;;;;;38.19;25.01;100205.20;256649;1102;115485;-72
2021/06/16 07:08:53;;;;;;;6.58;2.50;;;;;;;37.79;25.11;100203.88;254455;1104;115477;-73
2021/06/16 07:13:58;;;;;;;3.20;1.43;;;;;;;37.60;24.94;100196.83;255307;1104;115127;-77
2021/06/16 07:19:02;;;;;;;3.70;2.40;;;;;;;37.43;25.03;100198.50;254292;1103;115703;-77
2021/06/16 07:24:09;;;;;;;6.87;2.27;;;;;;;36.46;25.69;100199.96;254253;1103;115460;-77
2021/06/16 07:29:15;;;;;;;4.53;2.35;;;;;;;35.37;26.62;100198.63;254323;1103;114638;-78
2021/06/16 07:34:22;;;;;;;5.40;2.57;;;;;;;34.55;27.54;100192.60;254360;1102;116177;-75
2021/06/16 07:39:26;;;;;;;3.23;2.05;;;;;;;33.63;28.51;100206.38;254831;1104;115230;-75
2021/06/16 07:44:30;;;;;;;6.03;2.93;;;;;;;32.98;28.69;100198.49;255091;1104;115445;-80
2021/06/16 07:49:35;;;;;;;2.45;2.20;;;;;;;32.57;29.92;100207.72;254449;1104;116197;-77
2021/06/16 07:54:38;;;;;;;3.28;2.50;;;;;;;32.26;30.30;100206.05;254299;1104;116017;-72
2021/06/16 07:59:42;;;;;;;6.78;2.95;;;;;;;31.83;30.89;100218.26;254341;1104;114874;-78
2021/06/16 08:04:45;;;;;;;;;;;;;;;31.34;31.45;100207.86;254404;1104;115950;-75
2021/06/16 08:09:50;;;;;;;5.50;3.30;;;;;;;30.94;31.87;100211.70;255003;1104;103104;-77
2021/06/16 08:14:54;;;;;;;5.08;2.70;;;;;;;30.85;32.22;100210.33;254329;1104;115096;-76
2021/06/16 08:19:58;;;;;;;3.75;3.55;;;;;;;30.32;32.39;100213.38;254383;1104;115777;-74
2021/06/16 08:25:07;;;;;;;;;;;;;;;29.98;33.46;100216.80;254864;1097;115555;-78
2021/06/16 08:30:13;;;;;;;6.33;4.23;;;;;;;29.73;33.81;100218.89;255025;1102;103091;-74
2021/06/16 08:35:17;;;;;;;5.88;3.95;;;;;;;29.70;34.18;100220.39;254683;1104;115217;-76
2021/06/16 08:40:22;;;;;;;7.13;3.55;;;;;;;29.59;34.65;100219.31;254280;1103;116407;-76
2021/06/16 08:45:35;;;;;;;5.43;4.33;;;;;;;29.70;34.58;100217.64;255147;1103;115592;-74
2021/06/16 08:50:39;;;;;;;4.80;3.58;;;;;;;29.73;35.18;100216.94;255271;1102;115560;-78
2021/06/16 08:55:43;;;;;;;8.95;4.68;;;;;;;29.55;35.08;100228.60;256004;1103;115983;-77
2021/06/16 09:00:46;;;;;;;11.80;5.20;;;;;;;29.27;35.28;100220.33;257183;1104;115149;-73
2021/06/16 09:05:51;;;;;;;6.55;5.05;;;;;;;28.87;35.63;100218.35;257155;1103;115295;-73
2021/06/16 09:10:56;;;;;;;11.55;5.78;;;;;;;28.74;35.83;100219.50;257171;1104;115668;-74
2021/06/16 09:16:01;;;;;;;8.20;5.85;;;;;;;28.85;36.29;100223.38;255897;1103;116574;-73
2021/06/16 09:21:05;;;;;;;6.63;4.63;;;;;;;28.87;36.82;100221.09;254747;1103;115933;-73
2021/06/16 09:26:10;;;;;;;13.45;7.10;;;;;;;28.89;37.49;100213.32;254921;1104;115140;-74
2021/06/16 09:31:15;;;;;;;34.20;7.65;;;;;;;28.90;36.61;100214.12;254747;1103;115950;-76
2021/06/16 09:36:22;;;;;;;8.30;5.05;;;;;;;28.69;37.47;100211.50;254857;1102;115783;-72
2021/06/16 09:41:25;;;;;;;16.88;6.03;;;;;;;28.86;37.36;100208.52;254487;1103;115514;-72
2021/06/16 09:46:29;;;;;;;9.90;5.38;;;;;;;28.83;38.02;100225.67;254949;1104;116548;-72
2021/06/16 09:51:36;;;;;;;6.43;4.93;;;;;;;28.95;37.63;100225.66;254434;1097;115907;-72
2021/06/16 09:56:44;;;;;;;5.90;5.35;;;;;;;28.90;37.59;100223.16;254300;1102;116852;-72
2021/06/16 10:01:54;;;;;;;7.88;6.28;;;;;;;28.93;38.08;100224.41;254465;1104;116731;-72
2021/06/16 10:07:17;;;;;;;11.13;5.95;;;;;;;29.14;38.17;100214.86;255107;1104;117161;-73
2021/06/16 10:12:22;;;;;;;6.33;5.48;;;;;;;29.23;37.73;100211.98;254274;1104;116292;-72
2021/06/16 10:17:27;;;;;;;7.03;5.68;;;;;;;29.24;37.84;100205.34;254795;1104;116268;-73
2021/06/16 10:22:30;;;;;;;7.15;6.45;;;;;;;28.88;37.61;100203.48;254439;1104;117015;-72
2021/06/16 10:27:38;;;;;;;7.20;6.03;;;;;;;28.34;38.22;100206.48;254390;1104;116275;-72
2021/06/16 10:32:46;;;;;;;7.80;5.85;;;;;;;28.49;38.80;100205.77;254534;1104;117335;-71
2021/06/16 10:37:49;;;;;;;5.93;5.43;;;;;;;28.81;38.57;100209.55;255110;1104;117767;-71
2021/06/16 10:42:59;;;;;;;7.80;5.93;;;;;;;28.99;38.31;100206.56;254479;1104;116564;-72
2021/06/16 10:48:09;;;;;;;5.53;5.03;;;;;;;28.95;38.11;100209.20;254182;1102;115588;-72
2021/06/16 10:53:18;;;;;;;7.80;6.10;;;;;;;28.91;37.68;100194.56;256461;1104;115581;-73
2021/06/16 10:58:33;;;;;;;5.80;5.30;;;;;;;29.07;38.93;100191.88;256483;1102;115579;-73
2021/06/16 11:03:53;;;;;;;7.23;5.00;;;;;;;28.97;39.26;100201.42;257343;1102;115306;-77
2021/06/16 11:08:59;;;;;;;6.43;5.93;;;;;;;29.12;39.57;100200.67;256844;1103;115896;-74
2021/06/16 11:14:02;;;;;;;7.30;5.58;;;;;;;29.18;38.78;100189.45;255432;1104;115362;-75
2021/06/16 11:19:29;;;;;;;8.73;6.23;;;;;;;29.03;38.19;100196.49;255230;1104;115190;-77
2021/06/16 11:25:11;;;;;;;14.07;7.00;;;;;;;29.14;38.47;100192.90;254917;1104;115748;-74
2021/06/16 11:30:35;;;;;;;15.08;6.65;;;;;;;29.23;38.32;100192.76;254333;1098;116281;-77
2021/06/16 11:36:01;;;;;;;6.05;5.58;;;;;;;29.32;38.52;100192.63;254736;1104;115928;-75
2021/06/16 11:41:17;;;;;;;7.95;5.33;;;;;;;29.43;38.27;100199.23;254387;1104;115659;-78
2021/06/16 11:46:28;;;;;;;9.23;5.78;;;;;;;29.34;37.92;100196.63;254967;1104;116648;-78
2021/06/16 11:51:41;;;;;;;7.43;5.43;;;;;;;29.14;37.85;100190.16;254253;1103;115794;-74
2021/06/16 11:56:47;;;;;;;5.98;5.40;;;;;;;29.11;38.45;100188.09;254780;1103;115617;-78
2021/06/16 12:02:05;;;;;;;25.87;6.00;;;;;;;29.25;38.80;100176.73;254393;1104;115837;-77
2021/06/16 12:07:39;;;;;;;7.73;6.60;;;;;;;29.37;38.11;100181.36;254188;1103;116036;-75
2021/06/16 12:12:57;;;;;;;8.95;5.98;;;;;;;29.30;37.22;100175.70;254207;1102;115895;-76
2021/06/16 12:18:13;;;;;;;6.35;5.43;;;;;;;28.91;37.06;100169.06;254715;1096;116055;-76
2021/06/16 12:23:34;;;;;;;6.43;4.68;;;;;;;28.83;38.09;100160.62;254752;1104;115938;-76
2021/06/16 12:28:40;;;;;;;5.10;4.55;;;;;;;28.97;38.69;100160.25;254549;1104;116125;-77
2021/06/16 12:34:02;;;;;;;6.03;5.23;;;;;;;28.76;38.33;100154.08;254399;1103;116005;-76
2021/06/16 12:39:18;;;;;;;9.63;5.45;;;;;;;28.73;38.31;100152.06;254427;1104;117917;-74
2021/06/16 12:44:33;;;;;;;6.70;5.25;;;;;;;28.84;38.30;100150.44;254328;1103;115896;-74
2021/06/16 12:49:47;;;;;;;6.73;5.67;;;;;;;28.95;38.37;100134.30;254448;1096;115591;-74
2021/06/16 12:54:52;;;;;;;6.75;5.18;;;;;;;29.01;37.82;100124.68;257097;1104;117244;-73
2021/06/16 12:59:56;;;;;;;5.10;4.78;;;;;;;28.99;37.56;100130.52;254887;1104;117147;-74
2021/06/16 13:05:05;;;;;;;5.03;4.45;;;;;;;28.59;37.82;100124.98;256667;1104;116645;-74
2021/06/16 13:10:36;;;;;;;4.65;4.23;;;;;;;28.14;38.33;100128.63;257238;1104;117181;-74
2021/06/16 13:15:46;;;;;;;6.53;4.33;;;;;;;28.01;38.11;100126.25;257247;1104;116860;-76
2021/06/16 13:20:57;;;;;;;7.73;4.43;;;;;;;28.23;38.55;100114.05;256423;1104;116884;-75
2021/06/16 13:26:09;;;;;;;8.87;4.30;;;;;;;28.30;38.24;100112.34;254804;1102;117476;-75
2021/06/16 13:31:17;;;;;;;8.33;5.70;;;;;;;28.35;37.87;100117.59;256050;1104;116801;-73
2021/06/16 13:36:23;;;;;;;6.45;5.05;;;;;;;27.94;37.80;100115.84;254472;1104;116949;-74
2021/06/16 13:41:27;;;;;;;7.40;4.87;;;;;;;27.27;38.91;100106.09;255124;1104;116047;-76
2021/06/16 13:46:31;;;;;;;6.43;5.08;;;;;;;27.13;39.77;100103.67;254353;1104;116348;-79
2021/06/16 13:51:35;;;;;;;5.10;4.70;;;;;;;27.19;39.47;100104.27;254410;1097;116917;-76
2021/06/16 13:56:46;;;;;;;9.33;5.28;;;;;;;27.16;40.10;100096.72;254579;1104;117088;-78
2021/06/16 14:01:50;;;;;;;7.65;5.20;;;;;;;27.23;39.56;100098.89;254951;1103;115970;-81
2021/06/16 14:06:53;;;;;;;5.77;5.03;;;;;;;27.22;40.40;100091.81;254428;1103;116487;-79
2021/06/16 14:11:56;;;;;;;5.43;4.73;;;;;;;27.26;40.40;100095.48;254510;1096;117647;-79
2021/06/16 14:16:59;;;;;;;8.18;4.83;;;;;;;27.33;40.12;100087.52;255453;1104;117133;-75
2021/06/16 14:22:03;;;;;;;28.93;6.80;;;;;;;27.45;40.18;100093.05;254231;1104;116833;-73
2021/06/16 14:27:06;;;;;;;5.83;5.23;;;;;;;27.38;39.85;100087.31;254401;1103;116423;-71
2021/06/16 14:32:10;;;;;;;13.03;5.63;;;;;;;27.19;40.16;100084.31;254547;1103;116046;-73
2021/06/16 14:37:14;;;;;;;12.35;4.88;;;;;;;27.14;40.14;100075.16;254115;1103;116780;-74
2021/06/16 14:42:17;;;;;;;4.65;4.35;;;;;;;27.10;40.36;100081.64;254310;1096;115690;-75
2021/06/16 14:47:21;;;;;;;5.63;4.73;;;;;;;26.88;40.54;100068.31;254188;1104;116059;-75
2021/06/16 14:52:24;;;;;;;8.48;4.90;;;;;;;26.83;40.91;100074.78;254422;1104;116325;-74
2021/06/16 14:57:28;;;;;;;5.08;4.63;;;;;;;26.80;40.41;100069.98;255197;1096;115612;-78
2021/06/16 15:02:31;;;;;;;7.10;4.20;;;;;;;26.76;40.70;100060.84;254941;1104;115891;-75
2021/06/16 15:07:36;;;;;;;6.38;4.38;;;;;;;26.69;40.81;100055.90;255143;1103;115056;-74
2021/06/16 15:12:42;;;;;;;4.95;4.53;;;;;;;26.65;41.06;100054.16;257130;1104;118188;-79
2021/06/16 15:17:47;;;;;;;9.27;4.10;;;;;;;26.70;41.01;100048.50;256552;1104;115459;-77
2021/06/16 15:22:52;;;;;;;6.55;4.93;;;;;;;26.72;40.93;100054.44;257317;1103;115994;-76
2021/06/16 15:27:56;;;;;;;6.90;5.08;;;;;;;26.73;40.36;100048.63;257284;1104;115808;-76
2021/06/16 15:33:03;;;;;;;5.25;4.85;;;;;;;26.69;40.51;100053.16;254867;1104;115500;-77
2021/06/16 15:38:12;;;;;;;10.50;5.07;;;;;;;26.70;41.06;100054.77;255841;1104;118433;-76
2021/06/16 15:43:16;;;;;;;7.10;4.43;;;;;;;26.69;41.28;100052.36;254869;1104;115340;-72
2021/06/16 15:48:20;;;;;;;7.03;4.48;;;;;;;26.59;40.86;100050.85;254780;1103;116810;-75
2021/06/16 15:53:26;;;;;;;6.13;4.70;;;;;;;26.48;41.55;100057.84;255246;1103;116218;-77
2021/06/16 15:58:30;;;;;;;9.27;5.10;;;;;;;26.39;41.57;100049.70;254124;1104;117247;-75
2021/06/16 16:03:37;;;;;;;4.85;4.43;;;;;;;26.28;41.81;100048.48;254350;1103;116444;-76
2021/06/16 16:08:45;;;;;;;5.53;4.45;;;;;;;26.20;42.27;100052.06;254395;1096;116713;-75
2021/06/16 16:13:49;;;;;;;4.80;4.30;;;;;;;26.09;42.75;100053.56;254335;1096;115959;-76
2021/06/16 16:18:53;;;;;;;7.93;4.20;;;;;;;25.95;42.64;100055.74;254412;1104;116196;-75
2021/06/16 16:23:56;;;;;;;4.88;4.38;;;;;;;25.74;42.06;100053.73;254309;1103;117324;-75
2021/06/16 16:29:00;;;;;;;7.73;4.33;;;;;;;25.50;42.50;100054.28;254429;1104;116715;-75
2021/06/16 16:34:04;;;;;;;6.25;4.70;;;;;;;25.37;42.78;100060.77;254768;1104;117605;-75
2021/06/16 16:39:07;;;;;;;5.58;5.05;;;;;;;25.24;43.33;100044.57;255090;1103;117131;-76
2021/06/16 16:44:10;;;;;;;4.23;3.93;;;;;;;25.15;43.95;100045.39;255801;1104;115928;-76
2021/06/16 16:49:13;;;;;;;5.13;4.13;;;;;;;25.04;43.16;100055.05;254866;1103;115858;-74
2021/06/16 16:54:17;;;;;;;6.65;4.58;;;;;;;24.96;44.13;100047.67;255007;1103;117513;-75
2021/06/16 16:59:20;;;;;;;5.75;4.55;;;;;;;24.89;43.51;100055.50;254251;1103;115455;-73
2021/06/16 17:04:25;;;;;;;4.55;4.08;;;;;;;24.81;44.05;100056.30;254680;1103;116005;-75
2021/06/16 17:09:33;;;;;;;4.90;3.55;;;;;;;24.71;44.09;100054.72;255236;1104;116119;-70
2021/06/16 17:14:37;;;;;;;4.63;4.20;;;;;;;24.66;44.76;100054.08;257290;1102;116875;-72
2021/06/16 17:19:42;;;;;;;4.75;4.33;;;;;;;24.61;45.17;100052.31;257205;1104;116953;-74
2021/06/16 17:24:45;;;;;;;4.63;3.93;;;;;;;24.50;44.65;100057.26;257147;1104;115057;-74
2021/06/16 17:29:48;;;;;;;4.60;4.25;;;;;;;24.37;45.00;100066.40;256083;1104;115214;-72
2021/06/16 17:34:51;;;;;;;14.67;5.23;;;;;;;24.32;45.34;100063.02;254708;1104;116344;-73
2021/06/16 17:39:55;;;;;;;6.23;3.28;;;;;;;24.20;45.67;100074.48;255685;1097;116404;-72
2021/06/16 17:44:58;;;;;;;5.10;4.35;;;;;;;24.11;46.21;100073.69;255496;1104;115806;-74
2021/06/16 17:50:01;;;;;;;5.08;3.70;;;;;;;24.01;46.63;100076.69;254290;1104;115839;-72
2021/06/16 17:55:05;;;;;;;5.63;4.53;;;;;;;23.85;47.05;100079.83;254357;1104;116174;-73
2021/06/16 18:00:11;;;;;;;10.53;4.80;;;;;;;23.72;47.26;100085.39;254131;1096;116226;-71
2021/06/16 18:05:15;;;;;;;5.45;4.88;;;;;;;23.53;47.98;100087.55;254988;1104;117811;-74
2021/06/16 18:10:28;;;;;;;6.43;3.93;;;;;;;23.32;48.51;100087.22;254359;1096;116040;-72
2021/06/16 18:15:33;;;;;;;4.73;3.73;;;;;;;23.12;49.36;100093.97;254270;1095;116241;-73
2021/06/16 18:20:38;;;;;;;7.50;4.63;;;;;;;22.89;49.96;100089.65;254217;1104;116068;-76
2021/06/16 18:25:42;;;;;;;5.50;3.70;;;;;;;22.68;50.68;100092.78;254693;1103;116576;-71
2021/06/16 18:30:46;;;;;;;5.40;3.98;;;;;;;22.46;51.23;100101.70;254675;1104;117177;-72
2021/06/16 18:35:49;;;;;;;4.40;4.00;;;;;;;22.29;51.44;100101.53;254207;1104;117663;-72
2021/06/16 18:40:53;;;;;;;4.28;3.63;;;;;;;22.10;52.08;100111.68;254526;1103;116209;-75
2021/06/16 18:45:57;;;;;;;6.73;4.40;;;;;;;21.93;52.28;100106.03;254450;1104;116972;-73
2021/06/16 18:51:00;;;;;;;3.65;3.00;;;;;;;21.72;52.42;100109.11;255049;1097;205601;-73
2021/06/16 18:56:05;;;;;;;4.33;3.43;;;;;;;21.50;53.04;100108.97;254465;1103;116390;-72
2021/06/16 19:01:10;;;;;;;3.80;3.50;;;;;;;21.34;53.25;100110.34;255857;1104;115895;-75
2021/06/16 19:06:14;;;;;;;6.87;3.73;;;;;;;21.18;53.38;100112.45;254138;1104;117497;-76
2021/06/16 19:11:16;;;;;;;6.50;4.47;;;;;;;21.04;53.80;100119.75;254347;1097;116673;-76
2021/06/16 19:16:19;;;;;;;10.10;4.88;;;;;;;20.87;54.11;100127.58;254273;1104;116621;-75
2021/06/16 19:21:23;;;;;;;9.98;3.83;;;;;;;20.67;54.56;100139.52;254243;1104;117447;-72
2021/06/16 19:26:26;;;;;;;10.13;4.33;;;;;;;20.48;54.60;100139.50;254447;1100;116457;-75
2021/06/16 19:31:28;;;;;;;9.83;4.43;;;;;;;20.28;55.06;100143.21;254412;1104;116862;-71
2021/06/16 19:36:33;;;;;;;7.23;4.67;;;;;;;20.09;55.23;100150.48;254324;1104;116296;-77
2021/06/16 19:41:38;;;;;;;5.35;4.83;;;;;;;19.89;55.69;100150.67;256337;1104;117232;-72
2021/06/16 19:46:41;;;;;;;5.85;5.05;;;;;;;19.79;56.00;100148.89;255816;1104;116852;-77
2021/06/16 19:51:45;;;;;;;11.70;5.30;;;;;;;19.69;56.08;100155.20;254388;1104;116172;-75
2021/06/16 19:56:49;;;;;;;6.48;4.18;;;;;;;19.61;56.41;100144.18;254360;1104;117691;-79
2021/06/16 20:01:53;;;;;;;8.45;4.75;;;;;;;19.51;56.71;100147.80;255512;1103;115973;-73
2021/06/16 20:06:59;;;;;;;6.10;4.53;;;;;;;19.31;57.25;100156.84;254414;1104;116918;-76
2021/06/16 20:12:03;;;;;;;;;;;;;;;19.13;57.33;100155.63;254522;1104;117041;-77
2021/06/16 20:17:08;;;;;;;10.68;4.80;;;;;;;18.80;57.44;100151.78;255148;1103;104956;-75
2021/06/16 20:22:13;;;;;;;15.15;5.70;;;;;;;18.72;58.26;100159.65;254620;1104;137853;-76
2021/06/16 20:27:17;;;;;;;6.40;5.40;;;;;;;18.71;58.47;100160.73;254474;1103;116375;-76
2021/06/16 20:32:21;;;;;;;5.98;5.38;;;;;;;18.70;58.79;100169.92;254640;1104;116788;-76
2021/06/16 20:37:26;;;;;;;10.25;6.58;;;;;;;18.65;59.16;100164.56;255430;1104;115752;-73
2021/06/16 20:42:30;;;;;;;6.95;4.75;;;;;;;18.55;59.16;100162.68;254978;1103;115788;-74
2021/06/16 20:47:34;;;;;;;7.73;5.97;;;;;;;18.34;59.51;100169.25;254298;1104;116340;-73
2021/06/16 20:52:38;;;;;;;6.55;5.38;;;;;;;18.17;59.68;100175.77;255338;1096;115085;-73
2021/06/16 20:57:43;;;;;;;8.58;5.40;;;;;;;18.11;59.83;100181.44;255962;1103;115642;-76
2021/06/16 21:02:47;;;;;;;9.35;6.58;;;;;;;18.12;60.23;100177.66;256217;1104;115850;-74
2021/06/16 21:07:57;;;;;;;7.00;5.90;;;;;;;18.12;60.06;100183.05;254846;1103;115014;-79
2021/06/16 21:13:00;;;;;;;11.23;5.58;;;;;;;18.00;60.07;100185.26;254348;1102;117058;-79
2021/06/16 21:18:05;;;;;;;6.78;4.65;;;;;;;17.88;60.55;100188.23;254531;1104;195684;-80
2021/06/16 21:23:09;;;;;;;9.80;5.27;;;;;;;17.65;60.63;100197.70;254426;1104;116389;-76
2021/06/16 21:28:13;;;;;;;8.23;7.25;;;;;;;17.60;61.17;100194.96;256694;1103;117439;-71
2021/06/16 21:33:18;;;;;;;7.33;5.43;;;;;;;17.51;60.90;100199.27;257131;1103;117099;-78
2021/06/16 21:38:22;;;;;;;8.53;6.05;;;;;;;17.36;61.20;100196.58;255667;1103;118232;-78
2021/06/16 21:43:26;;;;;;;8.13;4.93;;;;;;;17.14;61.65;100197.59;255253;1104;115925;-77
2021/06/16 21:48:29;;;;;;;7.55;5.05;;;;;;;16.92;61.72;100205.09;254955;1103;117584;-74
2021/06/16 21:53:33;;;;;;;7.63;5.95;;;;;;;16.83;62.54;100202.09;254401;1103;205153;-74
2021/06/16 21:58:38;;;;;;;6.85;6.28;;;;;;;16.74;62.32;100209.09;254460;1096;115615;-77
2021/06/16 22:03:41;;;;;;;8.50;6.60;;;;;;;16.76;63.13;100214.20;254702;1103;115315;-77
2021/06/16 22:08:44;;;;;;;11.70;5.77;;;;;;;16.65;62.79;100212.54;255659;1104;116152;-71
2021/06/16 22:13:47;;;;;;;9.70;6.28;;;;;;;16.45;63.27;100208.66;254258;1097;117185;-71
2021/06/16 22:18:50;;;;;;;10.03;7.17;;;;;;;16.37;63.95;100222.61;254366;1096;116334;-71
2021/06/16 22:23:54;;;;;;;6.73;6.15;;;;;;;16.42;64.61;100233.41;254559;1096;119645;-72
2021/06/16 22:28:58;;;;;;;12.13;7.10;;;;;;;16.48;64.72;100221.59;254461;1097;115868;-75
2021/06/16 22:34:02;;;;;;;7.68;5.55;;;;;;;16.46;65.03;100223.73;254593;1102;116505;-74
2021/06/16 22:39:05;;;;;;;6.93;5.90;;;;;;;16.39;64.79;100225.03;254321;1102;115676;-74
2021/06/16 22:44:09;;;;;;;8.45;7.45;;;;;;;16.29;65.54;100215.02;254502;1102;115905;-75
2021/06/16 22:49:12;;;;;;;8.18;6.15;;;;;;;16.35;65.62;100216.67;254461;1104;116140;-74
2021/06/16 22:54:15;;;;;;;11.65;8.08;;;;;;;16.45;65.89;100211.35;254958;1101;115916;-72
2021/06/16 22:59:19;;;;;;;7.90;6.75;;;;;;;16.54;66.30;100210.83;254463;1102;116854;-76
2021/06/16 23:04:24;;;;;;;5.87;5.27;;;;;;;16.51;65.94;100212.16;255467;1103;117603;-72